Time;durP1;ratioP1;P1;durP2;ratioP2;P2;SDS_P1;SDS_P2;PMS_P1;PMS_P2;Temp;Humidity;BMP_temperature;BMP_pressure;BME280_temperature;BME280_humidity;BME280_pressure;Samples;Min_cycle;Max_cycle;Signal;HPM_P1;HPM_P2
2022/05/09 00:01:18;;;;;;;11.07;8.88;;;;;;;14.91;66.11;97982.66;4910341;28;20090;-91
2022/05/09 00:03:46;;;;;;;11.38;9.52;;;;;;;14.96;66.51;97998.41;4921934;28;20125;-90
2022/05/09 00:06:13;;;;;;;12.00;9.85;;;;;;;15.06;66.23;97996.91;4914255;28;21012;-89
2022/05/09 00:08:41;;;;;;;11.73;9.95;;;;;;;15.02;65.89;97991.38;4907572;28;20111;-90
2022/05/09 00:11:11;;;;;;;10.43;8.95;;;;;;;15.04;66.00;97997.16;4917744;28;20888;-89
2022/05/09 00:13:37;;;;;;;11.07;9.75;;;;;;;15.01;65.90;97989.81;4894784;28;20030;-89
2022/05/09 00:16:03;;;;;;;10.93;9.30;;;;;;;14.94;66.03;97987.41;4924226;28;20149;-89
2022/05/09 00:18:29;;;;;;;11.73;10.10;;;;;;;14.94;66.01;97986.59;4912957;28;20038;-90
2022/05/09 00:20:54;;;;;;;10.88;9.38;;;;;;;14.96;65.96;97985.31;4913775;28;20753;-89
2022/05/09 00:23:20;;;;;;;11.57;9.80;;;;;;;14.94;65.73;97989.22;4893156;28;20034;-89
2022/05/09 00:25:45;;;;;;;10.30;9.23;;;;;;;14.84;66.35;97976.84;4901917;28;20031;-88
2022/05/09 00:28:11;;;;;;;11.13;9.95;;;;;;;14.89;65.71;97976.88;4914055;28;20812;-87
2022/05/09 00:30:36;;;;;;;10.63;9.50;;;;;;;14.94;66.02;97983.97;4917775;28;20940;-90
2022/05/09 00:33:02;;;;;;;12.05;9.40;;;;;;;14.81;66.21;97973.94;4931773;28;20034;-89
2022/05/09 00:35:28;;;;;;;12.05;9.02;;;;;;;14.88;65.96;97980.53;4943150;28;20023;-88
2022/05/09 00:37:53;;;;;;;10.77;9.18;;;;;;;14.87;66.08;97978.16;4930657;28;20043;-89
2022/05/09 00:40:19;;;;;;;11.38;9.05;;;;;;;14.87;66.02;97975.53;4914266;28;20023;-89
2022/05/09 00:42:46;;;;;;;11.02;9.15;;;;;;;14.78;66.11;97965.50;4920091;28;20022;-88
2022/05/09 00:45:13;;;;;;;10.77;9.55;;;;;;;14.87;65.97;97967.66;4919355;28;20145;-89
2022/05/09 00:47:38;;;;;;;10.27;9.15;;;;;;;14.96;65.63;97976.66;4915527;28;20703;-88
2022/05/09 00:50:06;;;;;;;9.52;8.57;;;;;;;14.94;65.69;97979.53;4919835;28;20029;-89
2022/05/09 00:52:31;;;;;;;11.45;9.45;;;;;;;14.96;65.98;97982.69;4910029;28;20776;-89
2022/05/09 00:55:06;;;;;;;11.30;8.57;;;;;;;14.86;66.23;97972.13;4938668;28;20024;-89
2022/05/09 00:57:43;;;;;;;12.13;10.82;;;;;;;14.84;66.16;97978.66;4922177;28;20026;-89
2022/05/09 01:00:12;;;;;;;11.60;9.48;;;;;;;14.99;65.95;97981.38;4931908;28;20765;-89
2022/05/09 01:02:41;;;;;;;12.15;9.00;;;;;;;14.95;65.75;97967.97;4932919;28;20033;-89
2022/05/09 01:05:07;;;;;;;9.70;8.13;;;;;;;15.10;65.60;97979.63;4942836;28;20773;-88
2022/05/09 01:07:32;;;;;;;9.82;8.80;;;;;;;15.10;65.82;97977.00;4920453;28;20092;-89
2022/05/09 01:09:58;;;;;;;12.05;9.73;;;;;;;15.11;65.67;97979.38;4919607;28;20664;-89
2022/05/09 01:12:29;;;;;;;10.15;9.05;;;;;;;15.10;65.54;97979.63;4940025;28;20038;-89
2022/05/09 01:14:55;;;;;;;11.73;9.48;;;;;;;15.09;65.70;97964.91;4914801;28;20066;-89
2022/05/09 01:17:22;;;;;;;10.25;9.05;;;;;;;15.11;65.42;97984.63;4930999;28;20022;-88
2022/05/09 01:19:47;;;;;;;13.02;10.20;;;;;;;15.15;65.85;97979.66;4937514;28;20027;-88
2022/05/09 01:22:26;;;;;;;11.75;9.82;;;;;;;15.06;65.98;97986.41;4930477;28;20071;-88
2022/05/09 01:25:06;;;;;;;10.20;8.48;;;;;;;15.21;65.38;97983.09;4928308;28;20034;-88
2022/05/09 01:27:34;;;;;;;10.60;9.43;;;;;;;15.17;65.15;97988.84;4916932;28;20034;-88
2022/05/09 01:30:12;;;;;;;11.52;9.35;;;;;;;15.16;65.56;97991.72;4932663;28;20030;-88
2022/05/09 01:32:45;;;;;;;10.55;9.30;;;;;;;15.10;65.37;97988.28;4924380;28;20026;-88
2022/05/09 01:35:15;;;;;;;11.02;9.23;;;;;;;15.09;65.39;97978.03;4927507;28;20899;-88
2022/05/09 01:37:42;;;;;;;10.32;8.90;;;;;;;15.26;65.33;97981.28;4955456;28;20794;-89
2022/05/09 01:40:08;;;;;;;12.75;9.60;;;;;;;15.26;65.51;97981.28;4921635;28;20087;-89
2022/05/09 01:42:35;;;;;;;10.60;9.00;;;;;;;15.28;65.20;97983.66;4908169;28;20773;-88
2022/05/09 01:45:02;;;;;;;11.60;9.07;;;;;;;15.15;65.00;97967.31;4941203;28;20721;-88
2022/05/09 01:50:11;;;;;;;11.68;10.15;;;;;;;15.12;64.98;97978.31;4925270;28;20121;-89
2022/05/09 01:52:40;;;;;;;11.88;9.73;;;;;;;15.14;65.25;97984.09;4905351;28;20046;-88
2022/05/09 01:55:05;;;;;;;13.80;10.32;;;;;;;15.13;65.02;97976.47;4907366;28;20022;-89
2022/05/09 01:57:31;;;;;;;10.32;9.07;;;;;;;15.09;65.26;97976.19;4941161;28;20758;-88
2022/05/09 01:59:58;;;;;;;10.82;8.88;;;;;;;14.99;65.30;97973.50;4939439;28;20019;-88
2022/05/09 02:02:27;;;;;;;12.90;9.02;;;;;;;14.91;65.10;97974.00;4928114;28;20233;-88
2022/05/09 02:04:57;;;;;;;12.73;10.02;;;;;;;14.88;65.18;97974.50;4911487;28;20041;-88
2022/05/09 02:07:26;;;;;;;10.98;9.73;;;;;;;14.95;65.41;97985.56;4927408;28;20034;-88
2022/05/09 02:09:52;;;;;;;10.77;9.40;;;;;;;14.81;65.39;97973.94;4921166;28;20657;-88
2022/05/09 02:12:18;;;;;;;10.50;8.73;;;;;;;14.90;65.31;97988.94;4937185;28;20022;-88
2022/05/09 02:14:47;;;;;;;11.70;9.38;;;;;;;14.82;65.78;97986.75;4936675;28;20691;-88
2022/05/09 02:17:14;;;;;;;11.60;9.52;;;;;;;14.86;65.87;97982.63;4932558;28;20814;-88
2022/05/09 02:19:40;;;;;;;10.57;9.23;;;;;;;14.84;65.33;97981.28;4918172;28;20069;-88
2022/05/09 02:22:06;;;;;;;11.52;9.32;;;;;;;14.81;65.77;97985.19;4934171;28;20037;-89
2022/05/09 02:24:32;;;;;;;10.45;8.73;;;;;;;14.83;65.42;97983.13;4908549;28;20041;-88
2022/05/09 02:26:58;;;;;;;10.05;8.48;;;;;;;14.79;65.76;97985.44;4926442;28;20038;-88
2022/05/09 02:29:26;;;;;;;10.77;8.88;;;;;;;14.79;65.48;97976.81;4929927;28;20076;-88
2022/05/09 02:31:51;;;;;;;10.98;9.48;;;;;;;14.80;65.42;97981.00;4925903;28;20030;-88
2022/05/09 02:34:17;;;;;;;14.02;9.40;;;;;;;14.74;65.41;97974.94;4923828;28;20029;-88
2022/05/09 02:36:42;;;;;;;14.18;9.25;;;;;;;14.78;65.31;97980.47;4922961;28;20054;-88
2022/05/09 02:39:08;;;;;;;12.75;9.48;;;;;;;14.68;65.33;97972.50;4890460;28;20831;-89
2022/05/09 02:41:34;;;;;;;13.15;10.10;;;;;;;14.71;65.52;97980.66;4928008;28;20327;-88
2022/05/09 02:43:59;;;;;;;12.25;9.40;;;;;;;14.66;65.52;97983.25;4931595;28;20022;-88
2022/05/09 02:46:26;;;;;;;11.60;9.27;;;;;;;14.66;65.84;97982.47;4942302;28;20030;-88
2022/05/09 02:48:51;;;;;;;11.60;9.20;;;;;;;14.65;65.56;97980.88;4935650;28;20033;-88
2022/05/09 02:51:17;;;;;;;12.05;9.88;;;;;;;14.67;65.48;97984.03;4921721;28;20026;-88
2022/05/09 02:53:42;;;;;;;11.15;9.27;;;;;;;14.64;65.52;97982.72;4906846;28;20733;-88
2022/05/09 02:56:08;;;;;;;11.65;9.05;;;;;;;14.58;65.52;97975.81;4902179;28;20035;-88
2022/05/09 02:58:34;;;;;;;10.63;8.70;;;;;;;14.54;65.55;97977.34;4921280;28;20640;-88
2022/05/09 03:01:00;;;;;;;13.68;9.98;;;;;;;14.57;65.49;97979.50;4930430;28;20014;-88
2022/05/09 03:06:11;;;;;;;10.50;9.20;;;;;;;14.46;66.33;97983.06;4931831;28;20111;-88
2022/05/09 03:08:36;;;;;;;10.60;9.32;;;;;;;14.39;65.80;97968.34;4940092;28;20030;-88
2022/05/09 03:11:02;;;;;;;11.55;9.52;;;;;;;14.38;65.77;97969.38;4916665;28;20144;-88
2022/05/09 03:13:28;;;;;;;13.25;9.77;;;;;;;14.45;65.60;97976.25;4910063;28;20148;-88
2022/05/09 03:15:53;;;;;;;11.43;9.63;;;;;;;14.43;65.82;97974.66;4911566;28;20121;-87
2022/05/09 03:18:23;;;;;;;12.10;9.80;;;;;;;14.28;66.13;97971.91;4911272;28;20031;-88
2022/05/09 03:20:48;;;;;;;10.82;8.52;;;;;;;14.36;66.06;97975.88;4916699;28;20840;-88
2022/05/09 03:23:14;;;;;;;12.43;8.82;;;;;;;14.37;65.25;97975.63;4923256;28;20031;-89
2022/05/09 03:25:41;;;;;;;12.38;9.77;;;;;;;14.28;65.59;97971.13;4899185;28;20018;-89
2022/05/09 03:28:11;;;;;;;12.05;9.50;;;;;;;14.28;65.82;97974.53;4913075;28;20110;-89
2022/05/09 03:30:37;;;;;;;10.48;9.32;;;;;;;14.23;65.88;97977.09;4910143;28;20331;-89
2022/05/09 03:33:04;;;;;;;11.93;9.60;;;;;;;14.07;65.92;97955.22;4933545;28;20061;-89
2022/05/09 03:35:30;;;;;;;10.82;9.18;;;;;;;14.12;65.92;97967.53;4914879;28;20033;-88
2022/05/09 03:37:56;;;;;;;11.40;10.20;;;;;;;14.21;65.90;97981.78;4926523;28;20027;-88
2022/05/09 03:40:21;;;;;;;12.90;10.13;;;;;;;14.15;65.74;97974.91;4907190;28;20027;-88
2022/05/09 03:42:47;;;;;;;11.18;9.60;;;;;;;14.15;65.75;97983.56;4889297;28;20042;-88
2022/05/09 03:45:13;;;;;;;11.65;9.25;;;;;;;14.19;65.80;97983.88;4901589;28;20109;-88
2022/05/09 03:47:39;;;;;;;11.02;9.38;;;;;;;14.18;65.78;97985.69;4938123;28;20073;-89
2022/05/09 03:50:05;;;;;;;11.63;9.98;;;;;;;14.18;65.39;97983.06;4909033;28;20018;-88
2022/05/09 03:52:30;;;;;;;10.57;8.98;;;;;;;14.18;65.66;97990.13;4904650;28;20023;-87
2022/05/09 03:54:57;;;;;;;10.25;8.93;;;;;;;14.17;65.33;97985.94;4899867;28;20056;-88
2022/05/09 03:57:44;;;;;;;11.23;9.18;;;;;;;13.85;65.86;97957.88;4887178;28;20420;-88
2022/05/09 04:00:10;;;;;;;9.50;8.50;;;;;;;14.02;65.36;97966.41;4926575;28;20031;-88
2022/05/09 04:02:35;;;;;;;10.10;9.10;;;;;;;14.07;65.53;97981.41;4923745;28;20027;-88
2022/05/09 04:05:01;;;;;;;10.40;9.05;;;;;;;14.04;65.71;97987.91;4912758;28;20030;-89
2022/05/09 04:07:26;;;;;;;12.07;8.88;;;;;;;13.84;65.46;97953.66;4961769;28;20331;-89
2022/05/09 04:09:52;;;;;;;10.35;8.73;;;;;;;13.96;65.84;97977.88;4927432;28;20042;-89
2022/05/09 04:12:18;;;;;;;12.15;9.18;;;;;;;13.96;65.35;97984.94;4907863;28;20031;-88
2022/05/09 04:17:33;;;;;;;10.13;8.23;;;;;;;13.80;65.45;97984.00;4941620;28;20037;-87
2022/05/09 04:19:58;;;;;;;10.63;8.70;;;;;;;13.81;65.89;97981.13;4903083;28;20034;-88
2022/05/09 04:22:24;;;;;;;9.32;8.32;;;;;;;13.86;66.01;97994.28;4935450;28;20049;-88
2022/05/09 04:24:50;;;;;;;10.30;8.65;;;;;;;13.87;66.00;97995.06;4903615;28;20025;-88
2022/05/09 04:27:16;;;;;;;10.35;9.20;;;;;;;13.82;66.05;97995.00;4921066;28;20085;-88
2022/05/09 04:29:41;;;;;;;9.68;8.55;;;;;;;13.77;66.31;97989.72;4899269;28;20708;-88
2022/05/09 04:32:07;;;;;;;9.80;8.77;;;;;;;13.90;66.16;98001.63;4920808;28;20019;-88
2022/05/09 04:34:32;;;;;;;13.18;9.43;;;;;;;13.87;66.25;98000.28;4937643;28;20216;-88
2022/05/09 04:36:58;;;;;;;14.85;9.85;;;;;;;13.91;66.53;97998.75;4903900;28;20029;-88
2022/05/09 04:39:24;;;;;;;12.27;10.30;;;;;;;13.86;66.59;97988.22;4912916;28;20117;-89
2022/05/09 04:41:50;;;;;;;11.95;9.93;;;;;;;13.95;66.43;97999.88;4903685;28;20037;-88
2022/05/09 04:44:15;;;;;;;11.68;9.40;;;;;;;13.91;66.67;97983.06;4920699;28;20019;-88
2022/05/09 04:46:42;;;;;;;10.90;8.52;;;;;;;14.09;66.29;98002.88;4934390;28;20702;-88
2022/05/09 04:49:07;;;;;;;11.23;8.77;;;;;;;14.03;66.27;97983.72;4930290;28;20030;-89
2022/05/09 04:51:33;;;;;;;11.68;9.00;;;;;;;14.26;66.37;98009.84;4897927;28;20027;-88
2022/05/09 04:53:58;;;;;;;12.60;9.55;;;;;;;14.16;66.42;97994.84;4939358;28;20054;-89
2022/05/09 04:56:24;;;;;;;13.10;10.15;;;;;;;14.29;66.65;98010.16;4905882;28;20104;-88
2022/05/09 04:58:49;;;;;;;12.70;10.18;;;;;;;14.21;66.67;97992.28;4914200;28;20038;-88
2022/05/09 05:01:15;;;;;;;12.05;9.98;;;;;;;14.37;66.25;98001.06;4917639;28;20493;-88
2022/05/09 05:03:40;;;;;;;12.32;10.50;;;;;;;14.47;66.38;98011.63;4926625;28;20018;-89
2022/05/09 05:06:09;;;;;;;13.82;9.68;;;;;;;14.45;66.44;98007.69;4940482;28;20113;-88
2022/05/09 05:08:39;;;;;;;13.27;10.27;;;;;;;14.61;66.24;98006.78;4943587;28;20054;-88
2022/05/09 05:11:05;;;;;;;12.38;9.65;;;;;;;14.67;66.04;98003.19;4933641;28;20026;-89
2022/05/09 05:13:33;;;;;;;13.02;9.80;;;;;;;14.72;66.30;98012.91;4952974;28;20234;-89
2022/05/09 05:15:58;;;;;;;12.00;9.65;;;;;;;14.79;66.02;98014.28;4988600;28;20023;-88
2022/05/09 05:18:26;;;;;;;12.32;9.90;;;;;;;14.65;66.01;98000.03;4966107;28;20026;-88
2022/05/09 05:20:52;;;;;;;14.48;10.25;;;;;;;14.71;66.44;98012.13;4961296;28;20227;-87
2022/05/09 05:23:17;;;;;;;14.15;9.77;;;;;;;14.81;66.25;98015.88;4971500;28;20314;-88
2022/05/09 05:25:45;;;;;;;18.13;10.25;;;;;;;14.89;66.48;98020.63;4937872;28;20043;-88
2022/05/09 05:28:15;;;;;;;12.90;10.48;;;;;;;14.80;66.31;98017.69;4957250;28;20026;-88
2022/05/09 05:30:41;;;;;;;11.85;9.68;;;;;;;14.94;66.57;98026.72;4929206;28;20031;-87
2022/05/09 05:33:07;;;;;;;13.38;10.55;;;;;;;15.00;66.38;98024.94;4928791;28;20797;-88
2022/05/09 05:35:32;;;;;;;13.95;11.05;;;;;;;15.12;66.06;98028.16;4912531;28;20301;-87
2022/05/09 05:37:58;;;;;;;16.42;10.52;;;;;;;15.13;66.14;98024.50;4928389;28;20022;-88
2022/05/09 05:40:23;;;;;;;13.48;10.80;;;;;;;15.24;66.00;98037.69;4927724;28;20030;-88
2022/05/09 05:42:52;;;;;;;14.10;9.30;;;;;;;15.22;65.86;98021.41;4902433;28;20089;-88
2022/05/09 05:45:22;;;;;;;12.45;9.43;;;;;;;15.29;65.79;98042.97;4927986;28;20110;-87
2022/05/09 05:47:49;;;;;;;11.40;10.20;;;;;;;15.41;65.40;98033.06;4920961;28;20685;-89
2022/05/09 05:50:16;;;;;;;12.35;9.75;;;;;;;15.51;65.45;98038.34;4897846;28;20026;-88
2022/05/09 05:52:42;;;;;;;13.10;10.02;;;;;;;15.60;65.50;98037.88;4905812;28;20026;-88
2022/05/09 05:55:08;;;;;;;12.68;10.10;;;;;;;15.50;65.17;98031.50;4914407;28;20326;-87
2022/05/09 05:57:37;;;;;;;11.88;9.65;;;;;;;15.71;64.88;98045.53;4884369;28;20652;-87
2022/05/09 06:00:19;;;;;;;14.10;10.63;;;;;;;15.60;65.43;98045.75;4878521;28;20184;-86
2022/05/09 06:02:45;;;;;;;15.05;10.52;;;;;;;15.78;65.42;98050.59;4881447;28;20226;-87
2022/05/09 06:05:12;;;;;;;11.73;10.25;;;;;;;15.84;64.96;98057.44;4892866;28;20285;-86
2022/05/09 06:07:37;;;;;;;12.13;9.88;;;;;;;15.79;65.01;98046.13;4892830;28;20641;-85
2022/05/09 06:10:04;;;;;;;11.40;9.43;;;;;;;15.99;64.71;98050.66;4908862;28;20166;-86
2022/05/09 06:12:30;;;;;;;12.85;9.70;;;;;;;16.20;64.48;98054.94;4891533;28;20291;-86
2022/05/09 06:17:40;;;;;;;11.45;9.23;;;;;;;16.47;63.68;98056.56;4905802;28;20201;-85
2022/05/09 06:20:07;;;;;;;13.85;9.70;;;;;;;16.45;63.64;98059.47;4885263;28;20190;-84
2022/05/09 06:22:36;;;;;;;11.57;8.82;;;;;;;16.76;62.78;98058.69;4903326;28;20300;-86
2022/05/09 06:25:02;;;;;;;11.73;9.45;;;;;;;16.83;62.89;98060.03;4903644;28;20275;-86
2022/05/09 06:27:28;;;;;;;10.70;9.60;;;;;;;17.01;62.60;98056.09;4873536;28;20226;-86
2022/05/09 06:29:53;;;;;;;11.55;9.30;;;;;;;17.12;62.38;98051.63;4905450;28;20441;-85
2022/05/09 06:32:23;;;;;;;11.65;9.25;;;;;;;17.33;61.87;98060.28;4890787;28;20311;-86
2022/05/09 06:34:49;;;;;;;9.70;8.13;;;;;;;17.56;61.15;98045.75;4907047;28;20178;-85
2022/05/09 06:37:14;;;;;;;10.65;8.80;;;;;;;17.59;61.12;98061.00;4891147;28;20225;-84
2022/05/09 06:39:40;;;;;;;11.02;8.57;;;;;;;17.79;60.92;98049.59;4890414;28;20304;-86
2022/05/09 06:42:06;;;;;;;9.52;7.75;;;;;;;18.04;60.50;98052.44;4909333;28;20219;-84
2022/05/09 06:44:31;;;;;;;9.10;8.07;;;;;;;18.13;59.51;98048.97;4906084;28;20706;-85
2022/05/09 06:46:56;;;;;;;9.50;7.70;;;;;;;18.32;59.90;98061.53;4893506;28;20269;-84
2022/05/09 06:49:22;;;;;;;7.97;7.18;;;;;;;18.65;59.33;98059.97;4855576;28;20750;-84
2022/05/09 06:51:48;;;;;;;9.10;7.75;;;;;;;18.66;58.82;98058.94;4873802;28;20328;-85
2022/05/09 06:54:20;;;;;;;7.82;6.85;;;;;;;18.45;58.88;98063.53;4874189;28;20229;-84
2022/05/09 06:56:45;;;;;;;9.23;7.10;;;;;;;18.81;58.71;98060.63;4886809;28;20073;-85
2022/05/09 06:59:11;;;;;;;9.57;7.45;;;;;;;18.80;58.22;98067.00;4887633;28;20646;-84
2022/05/09 07:01:37;;;;;;;11.23;8.13;;;;;;;18.95;57.74;98062.69;4887522;28;20536;-82
2022/05/09 07:04:03;;;;;;;9.52;7.15;;;;;;;19.12;57.80;98073.63;4870541;28;20239;-84
2022/05/09 07:06:29;;;;;;;8.20;6.85;;;;;;;19.42;57.28;98072.53;4889891;28;20644;-84
2022/05/09 07:08:54;;;;;;;7.32;6.47;;;;;;;19.81;55.76;98057.63;4879821;28;20643;-85
2022/05/09 07:11:19;;;;;;;7.97;7.18;;;;;;;19.52;55.74;98061.09;4898750;28;20246;-84
2022/05/09 07:13:45;;;;;;;7.45;6.53;;;;;;;19.67;56.06;98054.84;4902447;28;20110;-83
2022/05/09 07:16:11;;;;;;;9.00;6.70;;;;;;;19.61;56.36;98058.63;4887293;28;20476;-85
2022/05/09 07:18:38;;;;;;;8.88;6.95;;;;;;;20.07;55.31;98067.91;4900859;28;20282;-84
2022/05/09 07:21:05;;;;;;;7.50;6.80;;;;;;;20.03;54.71;98065.00;4868489;28;20213;-86
2022/05/09 07:23:31;;;;;;;7.10;6.32;;;;;;;20.23;55.63;98057.91;4900766;28;20918;-84
2022/05/09 07:25:56;;;;;;;8.45;6.78;;;;;;;20.38;54.69;98063.75;4900552;28;20375;-84
2022/05/09 07:28:22;;;;;;;8.60;6.20;;;;;;;20.46;54.00;98069.47;4899167;28;20284;-84
2022/05/09 07:30:49;;;;;;;7.05;6.30;;;;;;;20.56;54.13;98064.84;4883134;28;20292;-84
2022/05/09 07:33:16;;;;;;;5.97;5.47;;;;;;;20.95;53.70;98068.22;4869144;28;20190;-84
2022/05/09 07:35:43;;;;;;;7.75;6.85;;;;;;;21.09;53.15;98070.91;4887131;28;20260;-85
2022/05/09 07:38:11;;;;;;;8.38;7.30;;;;;;;21.12;51.83;98075.63;4890366;28;20210;-86
2022/05/09 07:40:37;;;;;;;6.72;6.13;;;;;;;21.38;53.65;98073.31;4883312;28;20201;-85
2022/05/09 07:43:08;;;;;;;7.25;6.55;;;;;;;21.14;51.58;98084.84;4887317;28;20194;-84
2022/05/09 07:45:33;;;;;;;7.25;6.45;;;;;;;21.14;52.39;98079.53;4892752;28;20643;-83
2022/05/09 07:47:59;;;;;;;7.65;6.70;;;;;;;21.48;52.31;98077.66;4892256;28;20318;-83
2022/05/09 07:50:26;;;;;;;8.13;6.03;;;;;;;21.44;51.75;98072.16;4892777;28;20209;-84
2022/05/09 07:52:52;;;;;;;7.07;6.45;;;;;;;21.87;51.39;98077.19;4893388;28;20196;-83
2022/05/09 07:55:17;;;;;;;8.48;6.28;;;;;;;21.82;50.98;98074.63;4924619;28;20216;-84
2022/05/09 07:57:43;;;;;;;7.00;6.30;;;;;;;21.71;50.69;98073.25;4908982;28;20216;-83
2022/05/09 08:00:10;;;;;;;7.05;6.18;;;;;;;21.73;51.66;98070.31;4901841;28;20175;-83
2022/05/09 08:02:40;;;;;;;6.90;6.20;;;;;;;22.11;50.33;98075.41;4881943;28;20281;-85
2022/05/09 08:05:10;;;;;;;6.47;5.93;;;;;;;22.60;50.04;98074.59;4905612;28;20161;-84
2022/05/09 08:07:39;;;;;;;6.78;6.22;;;;;;;22.59;48.65;98080.97;4857897;28;20201;-85
2022/05/09 08:10:06;;;;;;;7.43;6.40;;;;;;;22.47;49.03;98083.38;4905247;28;20711;-84
2022/05/09 08:12:31;;;;;;;6.65;6.05;;;;;;;22.62;48.52;98085.69;4895211;28;20632;-85
2022/05/09 08:14:56;;;;;;;6.85;6.03;;;;;;;23.04;47.54;98076.75;4900411;28;20416;-83
2022/05/09 08:17:22;;;;;;;7.00;6.30;;;;;;;23.04;47.87;98080.19;4890602;28;20251;-82
2022/05/09 08:19:49;;;;;;;6.78;6.07;;;;;;;23.22;46.85;98083.78;4870171;28;20282;-84
2022/05/09 08:22:19;;;;;;;6.82;6.20;;;;;;;23.29;47.70;98086.78;4908207;28;20207;-85
2022/05/09 08:24:44;;;;;;;6.43;5.43;;;;;;;23.58;48.79;98084.69;4907775;28;20654;-84
2022/05/09 08:27:09;;;;;;;6.65;5.63;;;;;;;23.96;45.79;98079.69;4909828;28;20174;-84
2022/05/09 08:29:35;;;;;;;6.32;5.75;;;;;;;24.14;45.84;98080.47;4908104;28;20257;-83
2022/05/09 08:32:00;;;;;;;6.05;5.55;;;;;;;24.01;45.83;98082.19;4905057;28;20218;-82
2022/05/09 08:34:26;;;;;;;5.95;5.30;;;;;;;24.24;45.91;98080.19;4893486;28;20270;-84
2022/05/09 08:36:53;;;;;;;5.85;5.35;;;;;;;24.07;45.08;98077.50;4910568;28;20389;-82
2022/05/09 08:39:19;;;;;;;6.80;5.93;;;;;;;23.92;45.48;98078.72;4900820;28;20285;-83
2022/05/09 08:42:05;;;;;;;6.10;5.50;;;;;;;23.85;45.27;98075.75;4902131;28;20190;-81
2022/05/09 08:44:36;;;;;;;6.15;5.53;;;;;;;24.08;46.10;98081.75;4904750;28;20285;-82
2022/05/09 08:47:33;;;;;;;4.97;4.57;;;;;;;24.51;43.93;98080.22;4902566;28;20265;-83
2022/05/09 08:50:38;;;;;;;6.22;5.13;;;;;;;24.63;45.00;98083.06;4904279;28;20265;-82
2022/05/09 08:53:07;;;;;;;6.10;5.57;;;;;;;24.69;42.68;98081.78;4900823;28;20229;-81
2022/05/09 08:55:38;;;;;;;5.53;5.03;;;;;;;24.42;41.61;98088.19;4887314;28;20306;-81
2022/05/09 08:58:03;;;;;;;5.78;5.18;;;;;;;24.84;43.36;98086.63;4884366;28;20268;-82
2022/05/09 09:00:29;;;;;;;5.43;4.93;;;;;;;24.73;43.43;98087.25;4908947;28;20252;-83
2022/05/09 09:03:16;;;;;;;5.05;4.65;;;;;;;24.84;41.44;98077.84;4901831;28;20318;-81
2022/05/09 09:05:44;;;;;;;5.40;4.90;;;;;;;25.50;41.83;98082.88;4902283;28;20734;-83
2022/05/09 09:08:38;;;;;;;5.63;4.95;;;;;;;25.43;41.70;98077.28;4907373;28;20256;-81
2022/05/09 09:11:16;;;;;;;6.25;4.60;;;;;;;25.71;42.08;98082.16;4923782;28;20201;-82
2022/05/09 09:13:56;;;;;;;5.40;4.78;;;;;;;25.96;38.76;98077.78;4906807;28;20325;-82
2022/05/09 09:16:28;;;;;;;5.35;4.88;;;;;;;26.16;40.23;98078.94;4883777;28;20163;-82
2022/05/09 09:19:21;;;;;;;5.40;4.50;;;;;;;25.57;40.35;98083.16;4900333;28;20205;-80
2022/05/09 09:22:02;;;;;;;5.22;4.72;;;;;;;25.60;40.13;98079.84;4906770;28;20072;-82
2022/05/09 09:24:34;;;;;;;5.38;4.90;;;;;;;26.00;39.76;98075.28;4906840;28;20174;-83
2022/05/09 09:27:06;;;;;;;4.78;4.38;;;;;;;26.22;39.02;98080.31;4892126;28;20241;-82
2022/05/09 09:29:35;;;;;;;5.25;4.82;;;;;;;26.69;39.42;98076.66;4908880;28;20363;-82
2022/05/09 09:32:05;;;;;;;5.05;4.53;;;;;;;26.14;37.50;98087.25;4861979;28;20217;-81
2022/05/09 09:34:33;;;;;;;5.70;4.50;;;;;;;25.97;38.98;98082.03;4901986;28;20228;-79
2022/05/09 09:37:10;;;;;;;5.50;5.00;;;;;;;26.16;39.62;98081.59;4908456;28;20253;-82
2022/05/09 09:39:36;;;;;;;4.68;4.28;;;;;;;25.61;37.95;98084.06;4856912;28;20286;-81
2022/05/09 09:42:01;;;;;;;4.60;4.20;;;;;;;26.00;38.96;98077.97;4869119;28;20396;-81
2022/05/09 09:44:28;;;;;;;4.38;3.97;;;;;;;26.52;37.00;98075.66;4913985;28;20213;-82
2022/05/09 09:47:03;;;;;;;4.55;4.15;;;;;;;27.07;35.01;98071.09;4885028;28;20199;-83
2022/05/09 09:49:28;;;;;;;;;;;;;;;26.63;36.73;98076.09;4872136;28;20462;-83
2022/05/09 09:51:53;;;;;;;5.00;4.30;;;;;;;27.37;36.18;98067.50;4903064;28;20189;-83
2022/05/09 09:54:21;;;;;;;4.88;4.47;;;;;;;27.54;34.13;98061.13;4886206;28;20427;-81
2022/05/09 09:56:47;;;;;;;5.10;4.60;;;;;;;27.40;37.29;98056.91;4888201;28;20191;-82
2022/05/09 09:59:24;;;;;;;4.50;4.07;;;;;;;27.21;34.99;98061.97;4887932;28;20663;-80
2022/05/09 10:02:22;;;;;;;4.65;4.22;;;;;;;26.85;34.67;98072.28;4887022;28;20715;-81
2022/05/09 10:04:48;;;;;;;4.57;4.15;;;;;;;27.17;34.55;98061.09;4876752;28;20595;-81
2022/05/09 10:07:27;;;;;;;4.40;4.00;;;;;;;26.50;34.72;98067.22;4908539;28;20265;-78
2022/05/09 10:10:10;;;;;;;4.53;4.13;;;;;;;25.99;36.57;98063.81;4890222;28;20773;-81
2022/05/09 10:12:41;;;;;;;4.90;4.40;;;;;;;26.43;35.53;98058.16;4903155;28;20249;-80
2022/05/09 10:15:30;;;;;;;4.63;3.90;;;;;;;26.82;35.78;98064.91;4872192;28;20301;-80
2022/05/09 10:17:57;;;;;;;4.35;4.03;;;;;;;27.12;34.41;98053.28;4901688;28;20158;-81
2022/05/09 10:20:22;;;;;;;4.97;4.55;;;;;;;27.76;33.56;98051.88;4904731;28;20249;-82
2022/05/09 10:25:36;;;;;;;4.25;3.95;;;;;;;27.53;33.34;98047.00;4908275;28;20217;-82
2022/05/09 10:28:07;;;;;;;5.15;4.65;;;;;;;27.40;34.47;98046.22;4893336;28;20694;-80
2022/05/09 10:30:42;;;;;;;4.35;3.95;;;;;;;28.14;35.44;98051.50;4907552;28;20197;-81
2022/05/09 10:33:13;;;;;;;4.38;3.97;;;;;;;28.58;34.69;98048.13;4887288;28;20239;-80
2022/05/09 10:35:52;;;;;;;4.50;4.10;;;;;;;28.98;33.25;98043.78;4900022;28;20276;-80
2022/05/09 10:38:31;;;;;;;5.32;4.82;;;;;;;28.68;30.52;98031.56;4890328;28;20281;-79
2022/05/09 10:41:03;;;;;;;5.00;4.45;;;;;;;28.98;32.43;98036.56;4908504;28;20354;-79
2022/05/09 10:43:46;;;;;;;4.68;4.35;;;;;;;29.09;34.38;98039.50;4885327;28;20644;-80
2022/05/09 10:46:12;;;;;;;4.78;4.38;;;;;;;29.15;30.79;98030.06;4912509;28;20651;-81
2022/05/09 10:48:46;;;;;;;4.85;4.40;;;;;;;28.74;30.91;98029.44;4889652;28;20201;-81
2022/05/09 10:51:19;;;;;;;4.35;4.05;;;;;;;28.07;33.38;98027.22;4909153;28;20239;-81
2022/05/09 10:54:00;;;;;;;4.75;4.35;;;;;;;28.10;34.63;98031.88;4911381;28;20210;-80
2022/05/09 10:56:29;;;;;;;4.35;3.95;;;;;;;28.41;33.72;98025.06;4901480;28;20249;-79
2022/05/09 10:59:04;;;;;;;4.90;4.50;;;;;;;28.28;33.54;98013.63;4873254;28;20202;-79
2022/05/09 11:01:50;;;;;;;4.65;4.28;;;;;;;27.82;33.14;98013.06;4887497;28;20699;-80
2022/05/09 11:04:16;;;;;;;6.10;4.78;;;;;;;27.58;34.31;98008.53;4890432;28;20275;-80
2022/05/09 11:06:41;;;;;;;4.78;4.28;;;;;;;27.32;34.03;98006.22;4890536;28;20244;-81
2022/05/09 11:09:16;;;;;;;4.57;4.15;;;;;;;27.52;35.55;97996.50;4883252;28;20210;-79
2022/05/09 11:12:00;;;;;;;3.63;3.42;;;;;;;27.30;33.31;98011.91;4891928;28;20240;-79
2022/05/09 11:14:48;;;;;;;5.55;4.20;;;;;;;27.34;33.13;98004.75;4905196;28;20232;-79
2022/05/09 11:17:51;;;;;;;3.90;3.60;;;;;;;27.66;31.63;97994.25;4903070;28;20608;-80
2022/05/09 11:20:35;;;;;;;5.07;4.22;;;;;;;27.68;31.18;97997.38;4886807;28;20207;-79
2022/05/09 11:23:22;;;;;;;4.77;3.60;;;;;;;27.54;31.49;97996.94;4886441;28;20249;-79
2022/05/09 11:26:10;;;;;;;4.00;3.70;;;;;;;27.42;31.18;97997.75;4903948;28;20608;-78
2022/05/09 11:28:44;;;;;;;4.40;3.92;;;;;;;27.77;32.72;97995.34;4907020;28;20197;-80
2022/05/09 11:31:18;;;;;;;4.32;3.90;;;;;;;27.80;31.76;97983.19;4884689;28;20175;-80
2022/05/09 11:33:49;;;;;;;3.70;3.50;;;;;;;27.49;30.96;97983.78;4902146;28;20155;-79
2022/05/09 11:36:32;;;;;;;3.97;3.65;;;;;;;27.56;30.65;97989.38;4893841;28;20212;-80
2022/05/09 11:39:19;;;;;;;3.80;3.50;;;;;;;26.97;31.64;97985.22;4903528;28;20474;-81
2022/05/09 11:41:54;;;;;;;3.97;3.33;;;;;;;27.34;31.05;97978.00;4870768;28;20309;-78
2022/05/09 11:44:24;;;;;;;3.88;3.47;;;;;;;27.39;30.37;97975.13;4885899;28;20299;-80
2022/05/09 11:47:17;;;;;;;4.10;3.72;;;;;;;26.99;30.19;97962.41;4901319;28;20178;-81
2022/05/09 11:50:13;;;;;;;4.20;3.67;;;;;;;27.41;30.92;97964.84;4889069;28;20171;-80
2022/05/09 11:52:43;;;;;;;3.75;3.45;;;;;;;28.18;29.58;97966.69;4887899;28;20190;-80